createdAt,value
2023-11-12T00:00:13.705Z,100063.06
2023-11-12T00:01:15.795Z,100071.00
2023-11-12T00:02:17.736Z,100063.22
2023-11-12T00:03:20.496Z,100060.63
2023-11-12T00:04:22.527Z,100056.41
2023-11-12T00:05:24.526Z,100058.22
2023-11-12T00:06:26.416Z,100065.00
2023-11-12T00:07:28.277Z,100061.63
2023-11-12T00:08:31.359Z,100060.63
2023-11-12T00:09:33.254Z,100061.63
2023-11-12T00:10:35.557Z,100062.41
2023-11-12T00:11:39.389Z,100071.00
2023-11-12T00:12:42.131Z,100063.41
2023-11-12T00:13:44.308Z,100067.59
2023-11-12T00:14:46.960Z,100067.59
2023-11-12T00:15:49.150Z,100065.19
2023-11-12T00:16:51.137Z,100062.59
2023-11-12T00:17:53.109Z,100068.59
2023-11-12T00:18:56.327Z,100061.81
2023-11-12T00:19:58.338Z,100061.81
2023-11-12T00:21:00.324Z,100060.19
2023-11-12T00:22:03.150Z,100059.38
2023-11-12T00:23:05.098Z,100051.59
2023-11-12T00:24:08.756Z,100058.41
2023-11-12T00:25:13.661Z,100061.81
2023-11-12T00:26:16.094Z,100063.59
2023-11-12T00:27:25.568Z,100061.81
2023-11-12T00:28:28.345Z,100065.81
2023-11-12T00:29:30.242Z,100060.63
2023-11-12T00:30:32.190Z,100064.03
2023-11-12T00:31:34.571Z,100057.06
2023-11-12T00:32:37.231Z,100066.63
2023-11-12T00:33:41.819Z,100062.25
2023-11-12T00:34:44.365Z,100056.06
2023-11-12T00:35:46.242Z,100063.50
2023-11-12T00:36:48.104Z,100066.88
2023-11-12T00:37:50.062Z,100059.91
2023-11-12T00:38:52.343Z,100067.69
2023-11-12T00:39:54.246Z,100068.69
2023-11-12T00:40:56.347Z,100069.66
2023-11-12T00:42:00.253Z,100069.66
2023-11-12T00:43:03.295Z,100067.88
2023-11-12T00:44:06.365Z,100071.47
2023-11-12T00:45:09.717Z,100066.28
2023-11-12T00:46:11.784Z,100075.06
2023-11-12T00:47:13.744Z,100070.66
2023-11-12T00:48:17.964Z,100072.44
2023-11-12T00:49:20.065Z,100074.06
2023-11-12T00:50:21.980Z,100071.47
2023-11-12T00:51:23.882Z,100069.22
2023-11-12T00:52:26.252Z,100071.00
2023-11-12T00:53:28.692Z,100076.03
2023-11-12T00:54:31.370Z,100071.81
2023-11-12T00:55:33.460Z,100074.41
2023-11-12T00:56:35.328Z,100069.22
2023-11-12T00:57:37.425Z,100073.44
2023-11-12T00:58:39.435Z,100071.00
2023-11-12T00:59:43.359Z,100071.66
2023-11-12T01:00:45.254Z,100078.63
2023-11-12T01:01:47.252Z,100076.03
2023-11-12T01:02:50.092Z,100072.00
2023-11-12T01:03:52.263Z,100070.38
2023-11-12T01:04:54.292Z,100075.75
2023-11-12T01:05:56.126Z,100081.13
2023-11-12T01:06:58.064Z,100068.31
2023-11-12T01:08:00.047Z,100080.50
2023-11-12T01:09:02.008Z,100077.91
2023-11-12T01:10:05.951Z,100082.91
2023-11-12T01:11:09.371Z,100082.91
2023-11-12T01:12:11.350Z,100087.28
2023-11-12T01:13:13.315Z,100087.13
2023-11-12T01:14:15.373Z,100085.34
2023-11-12T01:15:18.910Z,100081.94
2023-11-12T01:16:21.173Z,100081.94
2023-11-12T01:17:23.195Z,100080.94
2023-11-12T01:18:25.776Z,100086.75
2023-11-12T01:19:27.796Z,100078.34
2023-11-12T01:20:29.757Z,100082.75
2023-11-12T01:21:31.832Z,100088.09
2023-11-12T01:22:33.813Z,100088.09
2023-11-12T01:23:37.918Z,100090.53
2023-11-12T01:24:40.728Z,100082.91
2023-11-12T01:25:42.955Z,100091.34
2023-11-12T01:26:44.968Z,100092.94
2023-11-12T01:27:46.862Z,100085.97
2023-11-12T01:28:48.831Z,100089.53
2023-11-12T01:29:50.824Z,100092.94
2023-11-12T01:30:52.678Z,100093.75
2023-11-12T01:31:55.803Z,100098.94
2023-11-12T01:32:57.825Z,100093.13
2023-11-12T01:33:59.831Z,100093.13
2023-11-12T01:35:04.178Z,100088.09
2023-11-12T01:36:07.522Z,100088.91
2023-11-12T01:37:09.399Z,100094.13
2023-11-12T01:38:11.525Z,100085.50
2023-11-12T01:39:13.759Z,100089.06
2023-11-12T01:40:17.241Z,100090.88
2023-11-12T01:41:19.304Z,100090.88
2023-11-12T01:42:21.300Z,100079.25
2023-11-12T01:43:23.209Z,100081.47
2023-11-12T01:44:25.105Z,100090.06
2023-11-12T01:45:27.018Z,100094.44
2023-11-12T01:46:29.761Z,100079.06
2023-11-12T01:47:32.149Z,100079.69
2023-11-12T01:48:36.881Z,100085.69
2023-11-12T01:49:40.440Z,100085.50
2023-11-12T01:50:43.961Z,100086.94
2023-11-12T01:51:46.339Z,100081.75
2023-11-12T01:52:50.504Z,100079.34
2023-11-12T01:53:54.204Z,100083.56
2023-11-12T01:54:57.379Z,100079.34
2023-11-12T01:56:00.285Z,100074.16
2023-11-12T01:57:02.869Z,100079.34
2023-11-12T01:58:05.556Z,100077.72
2023-11-12T01:59:07.808Z,100078.53
2023-11-12T02:00:17.473Z,100082.09
2023-11-12T02:01:20.732Z,100079.50
2023-11-12T02:02:22.660Z,100081.47
2023-11-12T02:03:27.913Z,100081.47
2023-11-12T02:04:30.220Z,100080.50
2023-11-12T02:05:32.579Z,100080.84
2023-11-12T02:06:34.544Z,100082.47
2023-11-12T02:07:38.349Z,100079.88
2023-11-12T02:08:43.543Z,100080.84
2023-11-12T02:09:45.467Z,100079.06
2023-11-12T02:10:49.824Z,100075.66
2023-11-12T02:11:53.193Z,100078.06
2023-11-12T02:12:55.275Z,100070.28
2023-11-12T02:13:57.588Z,100080.84
2023-11-12T02:14:59.629Z,100074.88
2023-11-12T02:16:01.923Z,100078.06
2023-11-12T02:17:03.903Z,100073.22
2023-11-12T02:18:05.908Z,100070.47
2023-11-12T02:19:31.860Z,100076.47
2023-11-12T02:20:34.130Z,100072.28
2023-11-12T02:21:36.065Z,100071.09
2023-11-12T02:22:39.260Z,100071.09
2023-11-12T02:23:41.221Z,100067.09
2023-11-12T02:24:43.963Z,100077.47
2023-11-12T02:25:46.513Z,100071.47
2023-11-12T02:26:49.009Z,100075.81
2023-11-12T02:27:51.052Z,100076.00
2023-11-12T02:28:53.014Z,100077.00
2023-11-12T02:29:55.287Z,100080.56
2023-11-12T02:30:57.306Z,100071.19
2023-11-12T02:32:00.321Z,100073.78
2023-11-12T02:33:02.349Z,100077.97
2023-11-12T02:34:04.791Z,100080.56
2023-11-12T02:35:08.921Z,100077.97
2023-11-12T02:36:11.184Z,100073.59
2023-11-12T02:37:14.792Z,100080.56
2023-11-12T02:38:17.714Z,100071.00
2023-11-12T02:39:22.243Z,100075.19
2023-11-12T02:40:24.501Z,100074.88
2023-11-12T02:41:26.445Z,100076.47
2023-11-12T02:42:30.390Z,100080.50
2023-11-12T02:43:35.168Z,100080.31
2023-11-12T02:44:40.027Z,100079.50
2023-11-12T02:45:41.907Z,100080.31
2023-11-12T02:46:43.920Z,100077.91
2023-11-12T02:47:45.980Z,100079.69
2023-11-12T02:49:23.467Z,100083.09
2023-11-12T02:50:33.199Z,100084.06
2023-11-12T02:51:36.687Z,100080.50
2023-11-12T02:52:38.636Z,100078.06
2023-11-12T02:53:40.560Z,100085.69
2023-11-12T02:54:42.488Z,100083.09
2023-11-12T02:55:45.606Z,100076.91
2023-11-12T02:56:47.507Z,100078.69
2023-11-12T02:57:50.297Z,100077.72
2023-11-12T02:58:52.593Z,100073.34
2023-11-12T02:59:55.823Z,100078.34
2023-11-12T03:00:57.974Z,100072.53
2023-11-12T03:02:00.043Z,100067.31
2023-11-12T03:03:03.827Z,100075.94
2023-11-12T03:04:07.807Z,100070.75
2023-11-12T03:05:09.990Z,100072.53
2023-11-12T03:06:12.686Z,100074.97
2023-11-12T03:07:15.763Z,100076.75
2023-11-12T03:08:17.731Z,100078.53
2023-11-12T03:09:21.072Z,100075.94
2023-11-12T03:10:24.065Z,100070.75
2023-11-12T03:11:27.203Z,100078.69
2023-11-12T03:12:29.478Z,100078.06
2023-11-12T03:13:31.443Z,100079.69
2023-11-12T03:14:34.583Z,100081.47
2023-11-12T03:15:36.484Z,100084.44
2023-11-12T03:16:38.715Z,100075.66
2023-11-12T03:17:41.441Z,100074.06
2023-11-12T03:18:50.920Z,100076.47
2023-11-12T03:19:56.103Z,100078.25
2023-11-12T03:20:58.029Z,100078.25
2023-11-12T03:21:59.919Z,100081.66
2023-11-12T03:23:02.096Z,100088.28
2023-11-12T03:24:06.264Z,100090.06
2023-11-12T03:25:11.064Z,100084.88
2023-11-12T03:26:13.298Z,100088.47
2023-11-12T03:27:15.770Z,100084.88
2023-11-12T03:28:17.910Z,100086.06
2023-11-12T03:29:20.435Z,100086.06
2023-11-12T03:30:22.358Z,100089.44
2023-11-12T03:31:26.972Z,100089.63
2023-11-12T03:32:29.002Z,100085.41
2023-11-12T03:33:32.690Z,100083.59
2023-11-12T03:34:34.857Z,100085.59
2023-11-12T03:35:38.367Z,100087.38
2023-11-12T03:36:40.287Z,100080.41
2023-11-12T03:37:42.202Z,100079.41
2023-11-12T03:38:44.441Z,100080.22
2023-11-12T03:39:51.173Z,100080.22
2023-11-12T03:40:53.257Z,100080.84
2023-11-12T03:41:55.352Z,100089.44
2023-11-12T03:42:57.295Z,100086.06
2023-11-12T03:43:59.393Z,100089.44
2023-11-12T03:45:01.528Z,100095.25
2023-11-12T03:46:03.575Z,100091.84
2023-11-12T03:47:06.093Z,100087.47
2023-11-12T03:48:11.327Z,100087.03
2023-11-12T03:49:13.297Z,100085.88
2023-11-12T03:50:15.361Z,100092.66
2023-11-12T03:51:17.347Z,100086.47
2023-11-12T03:52:19.914Z,100086.47
2023-11-12T03:53:21.757Z,100092.31
2023-11-12T03:54:24.413Z,100094.13
2023-11-12T03:55:27.007Z,100093.94
2023-11-12T03:56:30.921Z,100093.94
2023-11-12T03:57:33.120Z,100095.53
2023-11-12T03:58:35.022Z,100094.53
2023-11-12T03:59:37.479Z,100085.97
2023-11-12T04:00:39.615Z,100098.75
2023-11-12T04:01:41.725Z,100095.34
2023-11-12T04:02:43.968Z,100092.75
2023-11-12T04:03:46.426Z,100082.75
2023-11-12T04:04:48.659Z,100082.91
2023-11-12T04:05:50.646Z,100087.94
2023-11-12T04:06:52.575Z,100093.13
2023-11-12T04:07:54.657Z,100087.94
2023-11-12T04:08:56.578Z,100093.28
2023-11-12T04:09:59.081Z,100091.53
2023-11-12T04:11:01.179Z,100094.13
2023-11-12T04:12:05.341Z,100087.28
2023-11-12T04:13:08.458Z,100100.09
2023-11-12T04:14:10.490Z,100093.28
2023-11-12T04:15:13.079Z,100088.91
2023-11-12T04:16:15.220Z,100091.53
2023-11-12T04:17:19.051Z,100092.13
2023-11-12T04:18:20.979Z,100092.31
2023-11-12T04:19:22.846Z,100094.13
2023-11-12T04:20:30.360Z,100091.66
2023-11-12T04:21:32.538Z,100091.66
2023-11-12T04:22:35.325Z,100097.84
2023-11-12T04:23:37.395Z,100091.66
2023-11-12T04:24:39.365Z,100096.88
2023-11-12T04:25:42.446Z,100097.22
2023-11-12T04:26:45.700Z,100099.19
2023-11-12T04:27:48.480Z,100101.78
2023-11-12T04:28:50.720Z,100090.59
2023-11-12T04:29:52.769Z,100094.34
2023-11-12T04:30:56.099Z,100094.16
2023-11-12T04:31:58.074Z,100094.34
2023-11-12T04:32:59.988Z,100095.97
2023-11-12T04:34:02.383Z,100092.56
2023-11-12T04:35:05.132Z,100094.97
2023-11-12T04:36:07.301Z,100095.16
2023-11-12T04:37:10.047Z,100100.97
2023-11-12T04:38:11.973Z,100100.16
2023-11-12T04:39:14.117Z,100093.38
2023-11-12T04:40:17.525Z,100097.13
2023-11-12T04:41:19.523Z,100094.53
2023-11-12T04:42:21.455Z,100099.53
2023-11-12T04:43:23.381Z,100101.97
2023-11-12T04:44:26.773Z,100100.97
2023-11-12T04:45:28.738Z,100103.41
2023-11-12T04:46:31.926Z,100100.81
2023-11-12T04:47:33.958Z,100099.81
2023-11-12T04:48:36.099Z,100093.84
2023-11-12T04:49:39.414Z,100099.81
2023-11-12T04:50:41.300Z,100101.63
2023-11-12T04:51:43.212Z,100104.03
2023-11-12T04:52:45.673Z,100106.63
2023-11-12T04:53:47.786Z,100106.63
2023-11-12T04:54:51.484Z,100099.66
2023-11-12T04:55:53.465Z,100104.84
2023-11-12T04:56:55.416Z,100102.25
2023-11-12T04:57:57.366Z,100105.00
2023-11-12T04:58:59.280Z,100101.44
2023-11-12T05:00:01.229Z,100113.41
2023-11-12T05:01:05.817Z,100113.25
2023-11-12T05:02:08.145Z,100111.44
2023-11-12T05:03:11.067Z,100112.09
2023-11-12T05:04:13.247Z,100113.69
2023-11-12T05:05:17.743Z,100110.91
2023-11-12T05:06:19.945Z,100116.91
2023-11-12T05:07:21.828Z,100115.13
2023-11-12T05:08:24.198Z,100107.19
2023-11-12T05:09:27.002Z,100110.75
2023-11-12T05:10:44.386Z,100113.00
2023-11-12T05:11:47.782Z,100112.81
2023-11-12T05:12:50.173Z,100107.00
2023-11-12T05:13:52.962Z,100119.00
2023-11-12T05:14:54.846Z,100112.81
2023-11-12T05:15:57.821Z,100112.00
2023-11-12T05:17:00.060Z,100121.59
2023-11-12T05:18:07.121Z,100112.19
2023-11-12T05:19:09.503Z,100116.41
2023-11-12T05:20:12.838Z,100120.78
2023-11-12T05:21:14.802Z,100126.78
2023-11-12T05:22:18.346Z,100125.78
2023-11-12T05:23:20.307Z,100124.19
2023-11-12T05:24:22.210Z,100130.78
2023-11-12T05:25:24.095Z,100130.78
2023-11-12T05:26:25.989Z,100134.22
2023-11-12T05:27:27.933Z,100132.59
2023-11-12T05:28:30.959Z,100129.03
2023-11-12T05:29:35.521Z,100129.03
2023-11-12T05:30:38.223Z,100136.63
2023-11-12T05:31:40.444Z,100136.63
2023-11-12T05:32:42.475Z,100132.25
2023-11-12T05:33:44.467Z,100135.84
2023-11-12T05:34:46.459Z,100126.44
2023-11-12T05:35:49.262Z,100129.03
2023-11-12T05:36:51.279Z,100131.63
2023-11-12T05:37:53.156Z,100129.84
2023-11-12T05:38:55.387Z,100131.63
2023-11-12T05:39:57.309Z,100134.03
2023-11-12T05:40:59.272Z,100134.84
2023-11-12T05:42:01.159Z,100135.03
2023-11-12T05:43:03.149Z,100138.25
2023-11-12T05:44:06.038Z,100137.25
2023-11-12T05:45:08.946Z,100133.06
2023-11-12T05:46:11.004Z,100136.44
2023-11-12T05:47:12.921Z,100135.47
2023-11-12T05:48:16.184Z,100142.44
2023-11-12T05:49:18.201Z,100139.03
2023-11-12T05:50:20.224Z,100139.84
2023-11-12T05:51:22.147Z,100142.63
2023-11-12T05:52:24.079Z,100134.22
2023-11-12T05:53:26.066Z,100145.56
2023-11-12T05:54:28.049Z,100142.16
2023-11-12T05:55:30.139Z,100148.97
2023-11-12T05:56:32.280Z,100152.41
2023-11-12T05:57:34.720Z,100144.59
2023-11-12T05:58:36.842Z,100152.41
2023-11-12T05:59:39.122Z,100137.97
2023-11-12T06:00:41.169Z,100147.34
2023-11-12T06:01:43.352Z,100149.16
2023-11-12T06:02:45.327Z,100138.75
2023-11-12T06:03:47.478Z,100143.16
2023-11-12T06:04:49.482Z,100137.78
2023-11-12T06:05:51.420Z,100148.16
2023-11-12T06:06:53.293Z,100148.16
2023-11-12T06:07:55.402Z,100139.41
2023-11-12T06:08:57.811Z,100137.78
2023-11-12T06:10:00.545Z,100140.56
2023-11-12T06:11:02.609Z,100149.16
2023-11-12T06:12:06.430Z,100145.41
2023-11-12T06:13:10.025Z,100149.94
2023-11-12T06:14:12.619Z,100149.94
2023-11-12T06:15:14.606Z,100149.94
2023-11-12T06:16:16.633Z,100149.94
2023-11-12T06:17:18.793Z,100148.53
2023-11-12T06:18:20.672Z,100155.69
2023-11-12T06:19:22.647Z,100149.50
2023-11-12T06:20:27.383Z,100160.69
2023-11-12T06:21:29.986Z,100164.28
2023-11-12T06:22:31.964Z,100167.03
2023-11-12T06:23:33.859Z,100174.00
2023-11-12T06:24:35.890Z,100175.63
2023-11-12T06:25:37.719Z,100178.22
2023-11-12T06:26:39.641Z,100181.00
2023-11-12T06:27:42.004Z,100174.19
2023-11-12T06:28:44.176Z,100175.00
2023-11-12T06:29:47.680Z,100176.78
2023-11-12T06:30:52.158Z,100178.75
2023-11-12T06:31:54.125Z,100172.78
2023-11-12T06:32:56.216Z,100172.94
2023-11-12T06:33:58.324Z,100178.13
2023-11-12T06:35:00.275Z,100172.47
2023-11-12T06:36:02.598Z,100183.66
2023-11-12T06:37:04.985Z,100182.22
2023-11-12T06:38:07.091Z,100190.97
2023-11-12T06:39:08.986Z,100185.16
2023-11-12T06:40:12.371Z,100187.78
2023-11-12T06:41:14.297Z,100188.75
2023-11-12T06:42:16.853Z,100186.97
2023-11-12T06:43:19.083Z,100188.56
2023-11-12T06:44:21.056Z,100192.16
2023-11-12T06:45:23.250Z,100194.38
2023-11-12T06:46:26.664Z,100190.84
2023-11-12T06:47:28.580Z,100189.84
2023-11-12T06:48:30.482Z,100190.47
2023-11-12T06:49:33.308Z,100189.47
2023-11-12T06:50:35.191Z,100189.47
2023-11-12T06:51:37.181Z,100190.94
2023-11-12T06:52:39.077Z,100186.56
2023-11-12T06:53:41.059Z,100188.16
2023-11-12T06:54:43.514Z,100192.38
2023-11-12T06:55:45.376Z,100192.38
2023-11-12T06:56:47.288Z,100188.97
2023-11-12T06:57:49.209Z,100193.97
2023-11-12T06:58:51.104Z,100193.00
2023-11-12T06:59:52.921Z,100194.78
2023-11-12T07:00:55.656Z,100197.22
2023-11-12T07:01:57.621Z,100200.63
2023-11-12T07:02:59.759Z,100193.78
2023-11-12T07:04:01.789Z,100194.63
2023-11-12T07:05:07.754Z,100191.84
2023-11-12T07:06:09.698Z,100193.28
2023-11-12T07:07:16.807Z,100194.72
2023-11-12T07:08:20.433Z,100196.34
2023-11-12T07:09:22.525Z,100206.53
2023-11-12T07:10:25.064Z,100198.75
2023-11-12T07:11:27.107Z,100199.56
2023-11-12T07:12:28.983Z,100198.56
2023-11-12T07:13:30.947Z,100206.19
2023-11-12T07:14:33.024Z,100206.19
2023-11-12T07:15:35.039Z,100206.03
2023-11-12T07:16:36.930Z,100205.84
2023-11-12T07:17:38.806Z,100210.84
2023-11-12T07:18:49.559Z,100206.47
2023-11-12T07:19:56.976Z,100208.91
2023-11-12T07:20:58.843Z,100210.69
2023-11-12T07:22:01.496Z,100208.09
2023-11-12T07:23:03.463Z,100207.91
2023-11-12T07:24:06.725Z,100216.50
2023-11-12T07:25:10.518Z,100218.31
2023-11-12T07:26:12.406Z,100215.69
2023-11-12T07:27:14.310Z,100219.09
2023-11-12T07:28:16.249Z,100212.13
2023-11-12T07:29:18.256Z,100217.94
2023-11-12T07:30:21.137Z,100214.34
2023-11-12T07:31:25.248Z,100216.59
2023-11-12T07:32:27.584Z,100214.63
2023-11-12T07:33:29.505Z,100218.69
2023-11-12T07:34:31.435Z,100221.91
2023-11-12T07:35:35.230Z,100215.91
2023-11-12T07:36:38.474Z,100218.31
2023-11-12T07:37:44.710Z,100218.78
2023-11-12T07:38:46.639Z,100222.66
2023-11-12T07:39:48.615Z,100213.69
2023-11-12T07:40:50.585Z,100219.50
2023-11-12T07:41:53.046Z,100215.91
2023-11-12T07:42:59.084Z,100221.56
2023-11-12T07:44:01.720Z,100224.78
2023-11-12T07:45:13.715Z,100224.44
2023-11-12T07:46:17.630Z,100219.88
2023-11-12T07:47:19.557Z,100220.50
2023-11-12T07:48:21.448Z,100229.72
2023-11-12T07:49:24.863Z,100226.94
2023-11-12T07:50:27.135Z,100226.59
2023-11-12T07:51:29.000Z,100224.81
2023-11-12T07:52:32.319Z,100229.19
2023-11-12T07:53:34.248Z,100225.63
2023-11-12T07:54:36.485Z,100225.63
2023-11-12T07:55:39.068Z,100229.00
2023-11-12T07:56:42.608Z,100223.00
2023-11-12T07:57:45.177Z,100225.63
2023-11-12T07:58:47.322Z,100224.63
2023-11-12T07:59:49.259Z,100228.84
2023-11-12T08:00:51.264Z,100226.22
2023-11-12T08:01:53.145Z,100221.84
2023-11-12T08:02:55.195Z,100226.88
2023-11-12T08:03:58.571Z,100228.31
2023-11-12T08:05:04.274Z,100224.09
2023-11-12T08:06:08.726Z,100233.50
2023-11-12T08:07:11.149Z,100229.09
2023-11-12T08:08:13.133Z,100227.31
2023-11-12T08:09:15.739Z,100220.31
2023-11-12T08:10:19.756Z,100227.50
2023-11-12T08:11:21.897Z,100229.28
2023-11-12T08:12:23.906Z,100224.44
2023-11-12T08:13:26.090Z,100221.22
2023-11-12T08:14:27.982Z,100227.69
2023-11-12T08:15:30.025Z,100224.91
2023-11-12T08:16:32.086Z,100223.28
2023-11-12T08:17:34.060Z,100226.03
2023-11-12T08:18:35.912Z,100230.63
2023-11-12T08:19:37.801Z,100232.22
2023-11-12T08:20:39.755Z,100235.19
2023-11-12T08:21:41.899Z,100237.16
2023-11-12T08:22:44.654Z,100229.72
2023-11-12T08:23:47.973Z,100230.72
2023-11-12T08:24:49.884Z,100235.25
2023-11-12T08:25:51.777Z,100234.47
2023-11-12T08:26:53.703Z,100238.06
2023-11-12T08:27:58.354Z,100237.25
2023-11-12T08:29:00.247Z,100234.66
2023-11-12T08:30:02.236Z,100224.25
2023-11-12T08:31:04.334Z,100233.66
2023-11-12T08:32:07.463Z,100232.84
2023-11-12T08:33:09.378Z,100233.84
2023-11-12T08:34:11.248Z,100232.06
2023-11-12T08:35:13.825Z,100233.84
2023-11-12T08:36:16.134Z,100239.03
2023-11-12T08:37:18.779Z,100236.25
2023-11-12T08:38:20.849Z,100237.88
2023-11-12T08:39:24.116Z,100241.72
2023-11-12T08:40:25.999Z,100244.13
2023-11-12T08:41:30.792Z,100241.38
2023-11-12T08:42:32.715Z,100242.81
2023-11-12T08:43:34.842Z,100235.47
2023-11-12T08:44:37.491Z,100248.09
2023-11-12T08:45:40.984Z,100241.75
2023-11-12T08:46:43.904Z,100241.19
2023-11-12T08:47:46.706Z,100241.84
2023-11-12T08:48:48.709Z,100244.69
2023-11-12T08:49:50.665Z,100248.53
2023-11-12T08:50:52.591Z,100246.22
2023-11-12T08:51:54.438Z,100251.69
2023-11-12T08:52:58.010Z,100251.97
2023-11-12T08:54:00.040Z,100254.81
2023-11-12T08:55:01.999Z,100245.66
2023-11-12T08:56:04.685Z,100250.94
2023-11-12T08:57:08.041Z,100248.78
2023-11-12T08:58:10.068Z,100254.41
2023-11-12T08:59:12.793Z,100256.28
2023-11-12T09:00:15.517Z,100255.94
2023-11-12T09:01:17.449Z,100254.41
2023-11-12T09:02:19.542Z,100252.22
2023-11-12T09:03:21.919Z,100251.69
2023-11-12T09:04:24.062Z,100251.94
2023-11-12T09:05:25.989Z,100257.41
2023-11-12T09:06:27.998Z,100254.41
2023-11-12T09:07:29.935Z,100255.66
2023-11-12T09:08:31.903Z,100248.31
2023-11-12T09:09:36.796Z,100244.72
2023-11-12T09:10:39.105Z,100245.88
2023-11-12T09:11:40.977Z,100250.66
2023-11-12T09:12:43.026Z,100252.47
2023-11-12T09:13:46.374Z,100250.03
2023-11-12T09:14:48.447Z,100250.03
2023-11-12T09:15:50.814Z,100247.44
2023-11-12T09:16:52.944Z,100253.63
2023-11-12T09:17:55.406Z,100249.41
2023-11-12T09:18:57.728Z,100257.41
2023-11-12T09:19:59.652Z,100249.94
2023-11-12T09:21:02.081Z,100258.94
2023-11-12T09:22:04.218Z,100261.72
2023-11-12T09:23:06.455Z,100262.28
2023-11-12T09:24:09.129Z,100251.00
2023-11-12T09:25:12.652Z,100256.19
2023-11-12T09:26:23.661Z,100264.00
2023-11-12T09:27:25.780Z,100261.75
2023-11-12T09:28:27.703Z,100261.94
2023-11-12T09:29:30.026Z,100258.53
2023-11-12T09:30:44.620Z,100264.72
2023-11-12T09:31:55.974Z,100267.34
2023-11-12T09:32:58.227Z,100273.53
2023-11-12T09:34:00.416Z,100261.69
2023-11-12T09:35:05.449Z,100271.47
2023-11-12T09:36:07.940Z,100265.81
2023-11-12T09:37:10.745Z,100267.81
2023-11-12T09:38:14.356Z,100268.97
2023-11-12T09:39:18.147Z,100269.13
2023-11-12T09:40:20.866Z,100267.91
2023-11-12T09:41:24.291Z,100270.06
2023-11-12T09:42:32.889Z,100269.78
2023-11-12T09:43:34.823Z,100265.75
2023-11-12T09:44:40.146Z,100264.31
2023-11-12T09:45:46.992Z,100266.28
2023-11-12T09:47:27.010Z,100260.47
2023-11-12T09:48:40.467Z,100265.84
2023-11-12T09:49:43.790Z,100263.63
2023-11-12T09:50:46.636Z,100268.81
2023-11-12T09:51:48.822Z,100262.81
2023-11-12T09:52:53.865Z,100267.00
2023-11-12T09:53:59.293Z,100264.59
2023-11-12T09:55:02.773Z,100267.00
2023-11-12T09:56:11.405Z,100267.63
2023-11-12T09:57:13.353Z,100258.88
2023-11-12T09:58:15.471Z,100267.47
2023-11-12T09:59:17.474Z,100263.88
2023-11-12T10:00:19.961Z,100269.69
2023-11-12T10:01:21.999Z,100258.50
2023-11-12T10:02:27.497Z,100267.91
2023-11-12T10:03:29.510Z,100264.50
2023-11-12T10:04:32.040Z,100261.09
2023-11-12T10:05:35.732Z,100269.69
2023-11-12T10:06:40.234Z,100262.91
2023-11-12T10:07:43.126Z,100269.50
2023-11-12T10:08:46.240Z,100269.69
2023-11-12T10:09:48.135Z,100272.31
2023-11-12T10:10:50.106Z,100267.28
2023-11-12T10:11:52.121Z,100274.09
2023-11-12T10:12:57.328Z,100264.88
2023-11-12T10:13:59.483Z,100280.28
2023-11-12T10:15:03.217Z,100269.88
2023-11-12T10:16:41.701Z,100275.91
2023-11-12T10:17:47.516Z,100269.88
2023-11-12T10:18:49.444Z,100270.69
2023-11-12T10:19:58.665Z,100271.50
2023-11-12T10:21:08.835Z,100273.91
2023-11-12T10:22:11.836Z,100270.16
2023-11-12T10:23:32.637Z,100272.56
2023-11-12T10:24:46.498Z,100275.78
2023-11-12T10:25:51.660Z,100274.00
2023-11-12T10:27:06.753Z,100279.84
2023-11-12T10:28:12.720Z,100273.84
2023-11-12T10:29:22.773Z,100273.03
2023-11-12T10:30:26.091Z,100274.78
2023-11-12T10:31:39.740Z,100279.19
2023-11-12T10:32:41.859Z,100275.16
2023-11-12T10:34:00.663Z,100274.72
2023-11-12T10:35:03.694Z,100268.91
2023-11-12T10:36:11.566Z,100275.28
2023-11-12T10:37:17.187Z,100271.69
2023-11-12T10:38:19.900Z,100269.69
2023-11-12T10:39:22.050Z,100278.94
2023-11-12T10:40:25.372Z,100270.78
2023-11-12T10:41:36.277Z,100281.78
2023-11-12T10:42:38.195Z,100267.19
2023-11-12T10:43:41.783Z,100275.78
2023-11-12T10:44:45.859Z,100280.19
2023-11-12T10:45:51.005Z,100282.16
2023-11-12T10:46:55.098Z,100280.72
2023-11-12T10:47:57.894Z,100279.09
2023-11-12T10:49:02.037Z,100284.31
2023-11-12T10:50:06.029Z,100278.50
2023-11-12T10:51:09.788Z,100282.88
2023-11-12T10:52:14.869Z,100277.50
2023-11-12T10:53:17.771Z,100284.16
2023-11-12T10:54:21.866Z,100283.97
2023-11-12T10:55:25.517Z,100289.78
2023-11-12T10:56:29.722Z,100281.19
2023-11-12T10:57:35.466Z,100282.97
2023-11-12T10:58:37.490Z,100287.97
2023-11-12T10:59:41.335Z,100281.97
2023-11-12T11:00:45.818Z,100281.38
2023-11-12T11:01:48.557Z,100278.94
2023-11-12T11:02:50.889Z,100282.34
2023-11-12T11:03:53.449Z,100276.34
2023-11-12T11:04:57.955Z,100277.16
2023-11-12T11:06:02.899Z,100277.97
2023-11-12T11:07:05.738Z,100269.16
2023-11-12T11:08:07.883Z,100278.38
2023-11-12T11:09:11.380Z,100282.25
2023-11-12T11:10:13.396Z,100278.66
2023-11-12T11:11:15.674Z,100279.13
2023-11-12T11:12:19.268Z,100280.91
2023-11-12T11:13:22.723Z,100285.31
2023-11-12T11:14:31.101Z,100289.69
2023-11-12T11:15:53.414Z,100282.25
2023-11-12T11:16:56.907Z,100280.66
2023-11-12T11:17:59.024Z,100279.66
2023-11-12T11:19:01.019Z,100277.84
2023-11-12T11:20:06.129Z,100280.44
2023-11-12T11:21:17.498Z,100282.88
2023-11-12T11:22:28.284Z,100281.25
2023-11-12T11:23:53.619Z,100280.44
2023-11-12T11:25:30.792Z,100275.06
2023-11-12T11:26:45.449Z,100279.28
2023-11-12T11:27:48.828Z,100273.47
2023-11-12T11:29:11.056Z,100281.25
2023-11-12T11:30:18.946Z,100282.88
2023-11-12T11:31:20.850Z,100279.28
2023-11-12T11:32:22.944Z,100281.72
2023-11-12T11:33:25.124Z,100279.13
2023-11-12T11:34:43.748Z,100283.13
2023-11-12T11:35:46.084Z,100279.91
2023-11-12T11:37:02.286Z,100278.13
2023-11-12T11:38:13.575Z,100286.53
2023-11-12T11:39:27.667Z,100278.56
2023-11-12T11:40:34.434Z,100277.59
2023-11-12T11:41:49.045Z,100275.00
2023-11-12T11:43:23.276Z,100281.59
2023-11-12T11:44:45.935Z,100284.66
2023-11-12T11:46:08.377Z,100284.47
2023-11-12T11:47:27.301Z,100285.63
2023-11-12T11:48:29.277Z,100285.00
2023-11-12T11:49:31.204Z,100284.22
2023-11-12T11:50:46.156Z,100283.41
2023-11-12T11:51:50.196Z,100285.19
2023-11-12T11:52:54.071Z,100280.00
2023-11-12T11:53:58.182Z,100286.81
2023-11-12T11:55:27.042Z,100281.78
2023-11-12T11:56:31.516Z,100282.41
2023-11-12T11:57:33.776Z,100283.03
2023-11-12T11:58:52.707Z,100290.66
2023-11-12T11:59:57.466Z,100283.47
2023-11-12T12:01:00.921Z,100291.09
2023-11-12T12:02:06.002Z,100289.31
2023-11-12T12:03:20.331Z,100289.94
2023-11-12T12:04:24.351Z,100290.38
2023-11-12T12:05:32.097Z,100285.97
2023-11-12T12:06:34.924Z,100285.44